sensor_id;sensor_type;location;lat;lon;timestamp;pressure;altitude;pressure_sealevel;temperature;humidity
23318;BME280;11831;55.918;37.746;2022-08-18T00:00:49;99598.59;;;22.62;0.00
23318;BME280;11831;55.918;37.746;2022-08-18T00:03:16;99602.63;;;22.79;0.00
23318;BME280;11831;55.918;37.746;2022-08-18T00:05:44;99602.63;;;22.79;0.00
23318;BME280;11831;55.918;37.746;2022-08-18T00:08:10;99604.25;;;22.80;0.00
23318;BME280;11831;55.918;37.746;2022-08-18T00:10:39;99608.88;;;22.79;0.00
23318;BME280;11831;55.918;37.746;2022-08-18T00:13:05;99609.12;;;22.83;0.00
23318;BME280;11831;55.918;37.746;2022-08-18T00:15:31;99597.59;;;22.72;0.00
23318;BME280;11831;55.918;37.746;2022-08-18T00:17:57;99601.53;;;22.66;0.00
23318;BME280;11831;55.918;37.746;2022-08-18T00:20:23;99611.31;;;22.53;0.00
23318;BME280;11831;55.918;37.746;2022-08-18T00:22:49;99613.13;;;22.58;0.00
23318;BME280;11831;55.918;37.746;2022-08-18T00:25:17;99606.06;;;22.43;0.00
23318;BME280;11831;55.918;37.746;2022-08-18T00:27:43;99601.41;;;22.30;0.00
23318;BME280;11831;55.918;37.746;2022-08-18T00:30:12;99616.25;;;22.38;0.00
23318;BME280;11831;55.918;37.746;2022-08-18T00:32:42;99605.47;;;22.46;0.00
23318;BME280;11831;55.918;37.746;2022-08-18T00:37:35;99607.88;;;22.48;0.00
23318;BME280;11831;55.918;37.746;2022-08-18T00:40:01;99606.78;;;22.49;0.00
23318;BME280;11831;55.918;37.746;2022-08-18T00:42:29;99611.81;;;22.42;0.00
23318;BME280;11831;55.918;37.746;2022-08-18T00:44:57;99614.53;;;22.42;0.00
23318;BME280;11831;55.918;37.746;2022-08-18T00:47:24;99622.00;;;22.50;0.00
23318;BME280;11831;55.918;37.746;2022-08-18T00:49:53;99622.41;;;22.43;0.00
23318;BME280;11831;55.918;37.746;2022-08-18T00:52:19;99628.56;;;22.49;0.00
23318;BME280;11831;55.918;37.746;2022-08-18T00:54:46;99625.03;;;22.48;0.00
23318;BME280;11831;55.918;37.746;2022-08-18T00:57:13;99630.06;;;22.55;0.00
23318;BME280;11831;55.918;37.746;2022-08-18T00:59:44;99634.41;;;22.56;0.00
23318;BME280;11831;55.918;37.746;2022-08-18T01:02:18;99627.75;;;22.48;0.00
23318;BME280;11831;55.918;37.746;2022-08-18T01:04:53;99632.59;;;22.51;0.00
23318;BME280;11831;55.918;37.746;2022-08-18T01:07:22;99641.34;;;22.35;0.00
23318;BME280;11831;55.918;37.746;2022-08-18T01:09:50;99636.50;;;22.18;0.00
23318;BME280;11831;55.918;37.746;2022-08-18T01:12:17;99630.94;;;22.23;0.00
23318;BME280;11831;55.918;37.746;2022-08-18T01:14:44;99629.94;;;22.19;0.00
23318;BME280;11831;55.918;37.746;2022-08-18T01:17:11;99637.59;;;22.17;0.00
23318;BME280;11831;55.918;37.746;2022-08-18T01:19:56;99632.06;;;22.22;0.00
23318;BME280;11831;55.918;37.746;2022-08-18T01:25:12;99638.41;;;22.17;0.00
23318;BME280;11831;55.918;37.746;2022-08-18T01:27:57;99642.97;;;22.22;0.00
23318;BME280;11831;55.918;37.746;2022-08-18T01:30:28;99643.84;;;22.17;0.00
23318;BME280;11831;55.918;37.746;2022-08-18T01:32:55;99649.00;;;22.19;0.00
23318;BME280;11831;55.918;37.746;2022-08-18T01:35:22;99648.69;;;22.20;0.00
23318;BME280;11831;55.918;37.746;2022-08-18T01:37:50;99641.75;;;22.14;0.00
23318;BME280;11831;55.918;37.746;2022-08-18T01:40:17;99649.19;;;22.09;0.00
23318;BME280;11831;55.918;37.746;2022-08-18T01:42:43;99642.84;;;22.13;0.00
23318;BME280;11831;55.918;37.746;2022-08-18T01:45:11;99636.50;;;21.99;0.00
23318;BME280;11831;55.918;37.746;2022-08-18T01:47:38;99642.72;;;22.05;0.00
23318;BME280;11831;55.918;37.746;2022-08-18T01:50:05;99636.81;;;21.97;0.00
23318;BME280;11831;55.918;37.746;2022-08-18T01:52:32;99636.72;;;22.02;0.00
23318;BME280;11831;55.918;37.746;2022-08-18T01:55:00;99631.66;;;21.96;0.00
23318;BME280;11831;55.918;37.746;2022-08-18T01:57:27;99630.34;;;21.93;0.00
23318;BME280;11831;55.918;37.746;2022-08-18T01:59:53;99639.19;;;21.85;0.00
23318;BME280;11831;55.918;37.746;2022-08-18T02:02:25;99634.38;;;21.96;0.00
23318;BME280;11831;55.918;37.746;2022-08-18T02:04:53;99635.56;;;21.76;0.00
23318;BME280;11831;55.918;37.746;2022-08-18T02:07:21;99644.03;;;21.56;0.00
23318;BME280;11831;55.918;37.746;2022-08-18T02:09:47;99646.22;;;21.54;0.00
23318;BME280;11831;55.918;37.746;2022-08-18T02:12:13;99653.41;;;21.63;0.00
23318;BME280;11831;55.918;37.746;2022-08-18T02:14:39;99656.94;;;21.64;0.00
23318;BME280;11831;55.918;37.746;2022-08-18T02:17:06;99663.72;;;21.66;0.00
23318;BME280;11831;55.918;37.746;2022-08-18T02:19:34;99667.31;;;21.81;0.00
23318;BME280;11831;55.918;37.746;2022-08-18T02:22:01;99672.25;;;21.79;0.00
23318;BME280;11831;55.918;37.746;2022-08-18T02:24:27;99675.59;;;21.89;0.00
23318;BME280;11831;55.918;37.746;2022-08-18T02:26:53;99673.69;;;21.90;0.00
23318;BME280;11831;55.918;37.746;2022-08-18T02:29:19;99672.28;;;21.92;0.00
23318;BME280;11831;55.918;37.746;2022-08-18T02:31:45;99670.75;;;21.86;0.00
23318;BME280;11831;55.918;37.746;2022-08-18T02:34:11;99661.72;;;21.72;0.00
23318;BME280;11831;55.918;37.746;2022-08-18T02:36:37;99664.16;;;21.74;0.00
23318;BME280;11831;55.918;37.746;2022-08-18T02:39:04;99663.88;;;21.56;0.00
23318;BME280;11831;55.918;37.746;2022-08-18T02:41:30;99665.91;;;21.64;0.00
23318;BME280;11831;55.918;37.746;2022-08-18T02:43:57;99669.00;;;21.77;0.00
23318;BME280;11831;55.918;37.746;2022-08-18T02:46:25;99666.81;;;21.79;0.00
23318;BME280;11831;55.918;37.746;2022-08-18T02:48:51;99669.88;;;21.91;0.00
23318;BME280;11831;55.918;37.746;2022-08-18T02:51:17;99666.03;;;21.92;0.00
23318;BME280;11831;55.918;37.746;2022-08-18T02:53:44;99671.97;;;21.94;0.00
23318;BME280;11831;55.918;37.746;2022-08-18T02:56:14;99665.75;;;21.93;0.00
23318;BME280;11831;55.918;37.746;2022-08-18T02:58:59;99673.00;;;21.98;0.00
23318;BME280;11831;55.918;37.746;2022-08-18T03:01:29;99674.09;;;21.97;0.00
23318;BME280;11831;55.918;37.746;2022-08-18T03:03:56;99676.75;;;22.02;0.00
23318;BME280;11831;55.918;37.746;2022-08-18T03:06:23;99676.72;;;22.07;0.00
23318;BME280;11831;55.918;37.746;2022-08-18T03:08:49;99686.19;;;22.10;0.00
23318;BME280;11831;55.918;37.746;2022-08-18T03:11:17;99686.63;;;22.17;0.00
23318;BME280;11831;55.918;37.746;2022-08-18T03:13:44;99680.03;;;22.04;0.00
23318;BME280;11831;55.918;37.746;2022-08-18T03:16:11;99677.75;;;22.25;0.00
23318;BME280;11831;55.918;37.746;2022-08-18T03:18:37;99684.00;;;22.25;0.00
23318;BME280;11831;55.918;37.746;2022-08-18T03:21:11;99679.38;;;22.26;0.00
23318;BME280;11831;55.918;37.746;2022-08-18T03:23:38;99679.41;;;22.40;0.00
23318;BME280;11831;55.918;37.746;2022-08-18T03:26:12;99683.84;;;22.36;0.00
23318;BME280;11831;55.918;37.746;2022-08-18T03:28:39;99682.81;;;22.31;0.00
23318;BME280;11831;55.918;37.746;2022-08-18T03:31:06;99678.16;;;22.32;0.00
23318;BME280;11831;55.918;37.746;2022-08-18T03:33:32;99669.34;;;22.54;0.00
23318;BME280;11831;55.918;37.746;2022-08-18T03:36:08;99682.75;;;22.64;0.00
23318;BME280;11831;55.918;37.746;2022-08-18T03:38:37;99671.19;;;22.72;0.00
23318;BME280;11831;55.918;37.746;2022-08-18T03:41:06;99674.72;;;22.73;0.00
23318;BME280;11831;55.918;37.746;2022-08-18T03:43:33;99668.03;;;22.65;0.00
23318;BME280;11831;55.918;37.746;2022-08-18T03:46:03;99666.94;;;22.66;0.00
23318;BME280;11831;55.918;37.746;2022-08-18T03:48:30;99672.19;;;22.76;0.00
23318;BME280;11831;55.918;37.746;2022-08-18T03:51:03;99666.84;;;22.85;0.00
23318;BME280;11831;55.918;37.746;2022-08-18T03:53:31;99676.13;;;22.84;0.00
23318;BME280;11831;55.918;37.746;2022-08-18T03:55:59;99683.38;;;22.75;0.00
23318;BME280;11831;55.918;37.746;2022-08-18T03:58:25;99685.28;;;22.60;0.00
23318;BME280;11831;55.918;37.746;2022-08-18T04:00:52;99692.25;;;22.53;0.00
23318;BME280;11831;55.918;37.746;2022-08-18T04:03:19;99676.84;;;22.89;0.00
23318;BME280;11831;55.918;37.746;2022-08-18T04:05:45;99682.19;;;23.08;0.00
23318;BME280;11831;55.918;37.746;2022-08-18T04:08:12;99680.78;;;23.11;0.00
23318;BME280;11831;55.918;37.746;2022-08-18T04:10:38;99676.19;;;23.34;0.00
23318;BME280;11831;55.918;37.746;2022-08-18T04:13:04;99674.78;;;23.36;0.00
23318;BME280;11831;55.918;37.746;2022-08-18T04:15:31;99678.44;;;23.54;0.00
23318;BME280;11831;55.918;37.746;2022-08-18T04:17:57;99673.56;;;23.78;0.00
23318;BME280;11831;55.918;37.746;2022-08-18T04:20:24;99680.31;;;23.81;0.00
23318;BME280;11831;55.918;37.746;2022-08-18T04:22:50;99682.19;;;23.94;0.00
23318;BME280;11831;55.918;37.746;2022-08-18T04:25:16;99686.22;;;23.97;0.00
23318;BME280;11831;55.918;37.746;2022-08-18T04:27:42;99674.22;;;24.06;0.00
23318;BME280;11831;55.918;37.746;2022-08-18T04:30:08;99678.28;;;24.31;0.00
23318;BME280;11831;55.918;37.746;2022-08-18T04:32:35;99673.87;;;24.22;0.00
23318;BME280;11831;55.918;37.746;2022-08-18T04:35:02;99676.38;;;24.40;0.00
23318;BME280;11831;55.918;37.746;2022-08-18T04:37:29;99667.47;;;24.57;0.00
23318;BME280;11831;55.918;37.746;2022-08-18T04:39:57;99678.59;;;24.61;0.00
23318;BME280;11831;55.918;37.746;2022-08-18T04:42:24;99675.38;;;24.28;0.00
23318;BME280;11831;55.918;37.746;2022-08-18T04:44:50;99676.06;;;24.42;0.00
23318;BME280;11831;55.918;37.746;2022-08-18T04:47:16;99673.41;;;24.51;0.00
23318;BME280;11831;55.918;37.746;2022-08-18T04:49:42;99675.16;;;24.86;0.00
23318;BME280;11831;55.918;37.746;2022-08-18T04:52:09;99677.91;;;24.95;0.00
23318;BME280;11831;55.918;37.746;2022-08-18T04:54:54;99679.41;;;25.10;0.00
23318;BME280;11831;55.918;37.746;2022-08-18T04:57:20;99685.66;;;25.01;0.00
23318;BME280;11831;55.918;37.746;2022-08-18T04:59:48;99693.12;;;25.18;0.00
23318;BME280;11831;55.918;37.746;2022-08-18T05:02:15;99684.44;;;25.16;0.00
23318;BME280;11831;55.918;37.746;2022-08-18T05:04:41;99692.00;;;25.19;0.00
23318;BME280;11831;55.918;37.746;2022-08-18T05:07:11;99694.88;;;24.74;0.00
23318;BME280;11831;55.918;37.746;2022-08-18T05:09:38;99693.97;;;24.26;0.00
23318;BME280;11831;55.918;37.746;2022-08-18T05:12:07;99692.88;;;24.58;0.00
23318;BME280;11831;55.918;37.746;2022-08-18T05:14:33;99694.72;;;24.40;0.00
23318;BME280;11831;55.918;37.746;2022-08-18T05:17:01;99703.59;;;24.45;0.00
23318;BME280;11831;55.918;37.746;2022-08-18T05:19:27;99708.41;;;23.59;0.00
23318;BME280;11831;55.918;37.746;2022-08-18T05:21:56;99696.91;;;24.29;0.00
23318;BME280;11831;55.918;37.746;2022-08-18T05:24:23;99702.66;;;24.05;0.00
23318;BME280;11831;55.918;37.746;2022-08-18T05:26:50;99712.37;;;24.34;0.00
23318;BME280;11831;55.918;37.746;2022-08-18T05:29:17;99706.72;;;24.30;0.00
23318;BME280;11831;55.918;37.746;2022-08-18T05:31:48;99703.03;;;24.35;0.00
23318;BME280;11831;55.918;37.746;2022-08-18T05:34:15;99705.16;;;24.69;0.00
23318;BME280;11831;55.918;37.746;2022-08-18T05:41:40;99705.09;;;24.91;0.00
23318;BME280;11831;55.918;37.746;2022-08-18T05:44:08;99711.50;;;25.26;0.00
23318;BME280;11831;55.918;37.746;2022-08-18T05:46:39;99708.16;;;25.47;0.00
23318;BME280;11831;55.918;37.746;2022-08-18T05:49:07;99708.47;;;25.54;0.00
23318;BME280;11831;55.918;37.746;2022-08-18T05:51:47;99709.31;;;25.80;0.00
23318;BME280;11831;55.918;37.746;2022-08-18T05:54:13;99710.13;;;25.98;0.00
23318;BME280;11831;55.918;37.746;2022-08-18T05:57:03;99708.19;;;26.07;0.00
23318;BME280;11831;55.918;37.746;2022-08-18T05:59:31;99719.59;;;26.26;0.00
23318;BME280;11831;55.918;37.746;2022-08-18T06:04:52;99710.22;;;26.27;0.00
23318;BME280;11831;55.918;37.746;2022-08-18T06:07:22;99711.37;;;26.18;0.00
23318;BME280;11831;55.918;37.746;2022-08-18T06:09:52;99714.72;;;26.32;0.00
23318;BME280;11831;55.918;37.746;2022-08-18T06:12:29;99715.53;;;26.33;0.00
23318;BME280;11831;55.918;37.746;2022-08-18T06:28:13;99719.37;;;26.57;0.00
23318;BME280;11831;55.918;37.746;2022-08-18T06:33:11;99721.09;;;26.79;0.00
23318;BME280;11831;55.918;37.746;2022-08-18T06:41:01;99723.75;;;26.97;0.00
23318;BME280;11831;55.918;37.746;2022-08-18T06:43:28;99728.63;;;27.00;0.00
23318;BME280;11831;55.918;37.746;2022-08-18T06:45:54;99720.66;;;27.36;0.00
23318;BME280;11831;55.918;37.746;2022-08-18T06:48:29;99731.50;;;27.62;0.00
23318;BME280;11831;55.918;37.746;2022-08-18T06:50:59;99732.09;;;27.68;0.00
23318;BME280;11831;55.918;37.746;2022-08-18T06:56:25;99728.06;;;28.07;0.00
23318;BME280;11831;55.918;37.746;2022-08-18T06:58:51;99733.16;;;27.75;0.00
23318;BME280;11831;55.918;37.746;2022-08-18T07:01:21;99726.41;;;27.94;0.00
23318;BME280;11831;55.918;37.746;2022-08-18T07:03:49;99727.13;;;27.82;0.00
23318;BME280;11831;55.918;37.746;2022-08-18T07:08:43;99736.13;;;27.91;0.00
23318;BME280;11831;55.918;37.746;2022-08-18T07:11:17;99731.66;;;28.20;0.00
23318;BME280;11831;55.918;37.746;2022-08-18T07:13:46;99730.34;;;28.26;0.00
23318;BME280;11831;55.918;37.746;2022-08-18T07:16:14;99731.38;;;28.33;0.00
23318;BME280;11831;55.918;37.746;2022-08-18T07:18:41;99742.09;;;28.47;0.00
23318;BME280;11831;55.918;37.746;2022-08-18T07:21:08;99733.00;;;28.80;0.00
23318;BME280;11831;55.918;37.746;2022-08-18T07:23:56;99729.78;;;28.32;0.00
23318;BME280;11831;55.918;37.746;2022-08-18T07:26:22;99724.00;;;28.58;0.00
23318;BME280;11831;55.918;37.746;2022-08-18T07:28:49;99719.53;;;28.54;0.00
23318;BME280;11831;55.918;37.746;2022-08-18T07:33:51;99726.69;;;28.34;0.00
23318;BME280;11831;55.918;37.746;2022-08-18T07:36:17;99727.19;;;28.93;0.00
23318;BME280;11831;55.918;37.746;2022-08-18T07:38:50;99721.81;;;29.09;0.00
23318;BME280;11831;55.918;37.746;2022-08-18T07:44:17;99716.00;;;29.63;0.00
23318;BME280;11831;55.918;37.746;2022-08-18T07:49:20;99729.59;;;29.19;0.00
23318;BME280;11831;55.918;37.746;2022-08-18T07:59:30;99719.44;;;29.72;0.00
23318;BME280;11831;55.918;37.746;2022-08-18T08:07:13;99719.03;;;29.86;0.00
23318;BME280;11831;55.918;37.746;2022-08-18T08:09:44;99725.94;;;30.20;0.00
23318;BME280;11831;55.918;37.746;2022-08-18T08:14:43;99715.28;;;29.66;0.00
23318;BME280;11831;55.918;37.746;2022-08-18T08:30:22;99733.38;;;30.47;0.00
23318;BME280;11831;55.918;37.746;2022-08-18T08:33:01;99720.66;;;30.43;0.00
23318;BME280;11831;55.918;37.746;2022-08-18T08:35:50;99731.56;;;30.67;0.00
23318;BME280;11831;55.918;37.746;2022-08-18T08:38:18;99725.41;;;30.89;0.00
23318;BME280;11831;55.918;37.746;2022-08-18T08:41:23;99727.91;;;30.95;0.00
23318;BME280;11831;55.918;37.746;2022-08-18T08:43:44;99722.97;;;31.35;0.00
23318;BME280;11831;55.918;37.746;2022-08-18T08:46:14;99723.34;;;31.53;0.00
23318;BME280;11831;55.918;37.746;2022-08-18T08:48:43;99724.00;;;31.46;0.00
23318;BME280;11831;55.918;37.746;2022-08-18T08:53:38;99715.78;;;31.31;0.00
23318;BME280;11831;55.918;37.746;2022-08-18T08:56:08;99714.28;;;31.02;0.00
23318;BME280;11831;55.918;37.746;2022-08-18T08:58:38;99714.28;;;30.70;0.00
23318;BME280;11831;55.918;37.746;2022-08-18T09:03:54;99711.78;;;30.97;0.00
23318;BME280;11831;55.918;37.746;2022-08-18T09:22:11;99721.75;;;31.33;0.00
23318;BME280;11831;55.918;37.746;2022-08-18T09:24:45;99723.50;;;31.41;0.00
23318;BME280;11831;55.918;37.746;2022-08-18T09:30:01;99712.16;;;31.46;0.00
23318;BME280;11831;55.918;37.746;2022-08-18T09:34:59;99723.50;;;31.95;0.00
23318;BME280;11831;55.918;37.746;2022-08-18T09:37:38;99722.25;;;31.38;0.00
23318;BME280;11831;55.918;37.746;2022-08-18T09:40:17;99722.62;;;31.72;0.00
23318;BME280;11831;55.918;37.746;2022-08-18T09:43:13;99729.09;;;31.79;0.00
23318;BME280;11831;55.918;37.746;2022-08-18T09:50:53;99717.31;;;31.83;0.00
23318;BME280;11831;55.918;37.746;2022-08-18T09:53:34;99721.97;;;31.98;0.00
23318;BME280;11831;55.918;37.746;2022-08-18T09:56:02;99721.09;;;31.94;0.00
23318;BME280;11831;55.918;37.746;2022-08-18T10:01:18;99720.41;;;32.39;0.00
23318;BME280;11831;55.918;37.746;2022-08-18T10:06:29;99710.78;;;32.29;0.00
23318;BME280;11831;55.918;37.746;2022-08-18T10:09:03;99711.78;;;32.21;0.00
23318;BME280;11831;55.918;37.746;2022-08-18T10:11:36;99714.25;;;32.07;0.00
23318;BME280;11831;55.918;37.746;2022-08-18T10:19:28;99707.38;;;32.82;0.00
23318;BME280;11831;55.918;37.746;2022-08-18T10:22:00;99711.00;;;32.86;0.00
23318;BME280;11831;55.918;37.746;2022-08-18T10:27:03;99707.84;;;32.87;0.00
23318;BME280;11831;55.918;37.746;2022-08-18T10:32:40;99697.84;;;33.06;0.00
23318;BME280;11831;55.918;37.746;2022-08-18T10:37:52;99705.88;;;32.88;0.00
23318;BME280;11831;55.918;37.746;2022-08-18T10:40:18;99708.28;;;32.89;0.00
23318;BME280;11831;55.918;37.746;2022-08-18T10:50:38;99689.09;;;33.03;0.00
23318;BME280;11831;55.918;37.746;2022-08-18T10:53:09;99684.56;;;33.41;0.00
23318;BME280;11831;55.918;37.746;2022-08-18T10:58:15;99689.44;;;33.25;0.00
23318;BME280;11831;55.918;37.746;2022-08-18T11:00:50;99688.09;;;33.38;0.00
23318;BME280;11831;55.918;37.746;2022-08-18T11:06:19;99688.13;;;33.42;0.00
23318;BME280;11831;55.918;37.746;2022-08-18T11:08:46;99693.31;;;34.44;0.00
23318;BME280;11831;55.918;37.746;2022-08-18T11:11:12;99683.22;;;33.91;0.00
23318;BME280;11831;55.918;37.746;2022-08-18T11:18:52;99679.31;;;35.25;0.00
23318;BME280;11831;55.918;37.746;2022-08-18T11:26:33;99670.16;;;37.43;0.00
23318;BME280;11831;55.918;37.746;2022-08-18T11:29:15;99674.25;;;38.71;40.56
23318;BME280;11831;55.918;37.746;2022-08-18T11:31:41;99676.53;;;38.83;39.96
23318;BME280;11831;55.918;37.746;2022-08-18T11:34:11;99661.25;;;39.36;38.80
23318;BME280;11831;55.918;37.746;2022-08-18T11:36:38;99672.63;;;39.86;36.84
23318;BME280;11831;55.918;37.746;2022-08-18T11:39:07;99668.06;;;40.77;35.27
23318;BME280;11831;55.918;37.746;2022-08-18T11:41:34;99674.03;;;42.21;33.76
23318;BME280;11831;55.918;37.746;2022-08-18T11:44:02;99673.00;;;43.54;31.09
23318;BME280;11831;55.918;37.746;2022-08-18T11:46:31;99661.56;;;43.32;29.80
23318;BME280;11831;55.918;37.746;2022-08-18T11:49:19;99666.22;;;44.44;29.76
23318;BME280;11831;55.918;37.746;2022-08-18T11:51:55;99664.09;;;44.48;29.35
23318;BME280;11831;55.918;37.746;2022-08-18T11:54:22;99654.41;;;45.31;29.16
23318;BME280;11831;55.918;37.746;2022-08-18T11:59:42;99667.91;;;44.54;28.99
23318;BME280;11831;55.918;37.746;2022-08-18T12:02:08;99661.75;;;45.60;28.17
23318;BME280;11831;55.918;37.746;2022-08-18T12:04:37;99657.87;;;46.28;27.27
23318;BME280;11831;55.918;37.746;2022-08-18T12:07:08;99654.62;;;43.91;28.60
23318;BME280;11831;55.918;37.746;2022-08-18T12:09:44;99657.00;;;46.00;27.12
23318;BME280;11831;55.918;37.746;2022-08-18T12:17:21;99651.03;;;46.38;25.51
23318;BME280;11831;55.918;37.746;2022-08-18T12:19:47;99658.28;;;45.77;25.38
23318;BME280;11831;55.918;37.746;2022-08-18T12:22:15;99651.88;;;45.86;25.32
23318;BME280;11831;55.918;37.746;2022-08-18T12:24:41;99642.78;;;45.82;25.83
23318;BME280;11831;55.918;37.746;2022-08-18T12:27:07;99640.75;;;46.90;25.22
23318;BME280;11831;55.918;37.746;2022-08-18T12:29:34;99634.91;;;47.49;24.77
23318;BME280;11831;55.918;37.746;2022-08-18T12:32:00;99647.16;;;47.37;24.89
23318;BME280;11831;55.918;37.746;2022-08-18T12:34:26;99648.25;;;48.00;24.03
23318;BME280;11831;55.918;37.746;2022-08-18T12:36:53;99644.78;;;47.44;23.98
23318;BME280;11831;55.918;37.746;2022-08-18T12:39:20;99646.66;;;47.66;23.90
23318;BME280;11831;55.918;37.746;2022-08-18T12:41:46;99647.84;;;46.27;23.95
23318;BME280;11831;55.918;37.746;2022-08-18T12:44:12;99653.50;;;47.92;23.16
23318;BME280;11831;55.918;37.746;2022-08-18T12:46:38;99663.78;;;48.22;22.99
23318;BME280;11831;55.918;37.746;2022-08-18T12:49:05;99647.03;;;48.81;22.32
23318;BME280;11831;55.918;37.746;2022-08-18T12:51:35;99650.63;;;47.04;22.14
23318;BME280;11831;55.918;37.746;2022-08-18T12:54:01;99648.13;;;46.88;22.33
23318;BME280;11831;55.918;37.746;2022-08-18T12:56:28;99650.16;;;45.89;22.88
23318;BME280;11831;55.918;37.746;2022-08-18T12:58:55;99638.22;;;47.01;23.01
23318;BME280;11831;55.918;37.746;2022-08-18T13:01:22;99642.81;;;46.31;23.18
23318;BME280;11831;55.918;37.746;2022-08-18T13:03:50;99632.88;;;46.18;22.94
23318;BME280;11831;55.918;37.746;2022-08-18T13:06:18;99635.97;;;47.42;22.61
23318;BME280;11831;55.918;37.746;2022-08-18T13:08:44;99636.94;;;47.57;22.42
23318;BME280;11831;55.918;37.746;2022-08-18T13:11:10;99643.34;;;48.66;22.21
23318;BME280;11831;55.918;37.746;2022-08-18T13:13:37;99609.66;;;48.11;22.45
23318;BME280;11831;55.918;37.746;2022-08-18T13:16:04;99609.47;;;47.82;22.14
23318;BME280;11831;55.918;37.746;2022-08-18T13:18:31;99624.62;;;46.32;23.18
23318;BME280;11831;55.918;37.746;2022-08-18T13:20:57;99614.44;;;46.53;23.17
23318;BME280;11831;55.918;37.746;2022-08-18T13:23:23;99624.41;;;45.77;23.57
23318;BME280;11831;55.918;37.746;2022-08-18T13:25:49;99630.97;;;46.73;23.35
23318;BME280;11831;55.918;37.746;2022-08-18T13:28:15;99631.31;;;47.90;22.81
23318;BME280;11831;55.918;37.746;2022-08-18T13:30:41;99631.66;;;48.16;22.77
23318;BME280;11831;55.918;37.746;2022-08-18T13:33:07;99626.81;;;48.41;22.40
23318;BME280;11831;55.918;37.746;2022-08-18T13:35:33;99633.38;;;48.95;22.06
23318;BME280;11831;55.918;37.746;2022-08-18T13:37:59;99637.53;;;48.37;22.22
23318;BME280;11831;55.918;37.746;2022-08-18T13:40:25;99635.28;;;48.89;22.26
23318;BME280;11831;55.918;37.746;2022-08-18T13:42:51;99640.25;;;48.55;22.28
23318;BME280;11831;55.918;37.746;2022-08-18T13:45:19;99629.91;;;49.44;21.90
23318;BME280;11831;55.918;37.746;2022-08-18T13:47:46;99619.63;;;48.78;22.20
23318;BME280;11831;55.918;37.746;2022-08-18T13:50:12;99622.03;;;47.02;22.63
23318;BME280;11831;55.918;37.746;2022-08-18T13:52:39;99622.94;;;47.54;22.50
23318;BME280;11831;55.918;37.746;2022-08-18T13:55:06;99625.03;;;47.26;23.10
23318;BME280;11831;55.918;37.746;2022-08-18T13:57:34;99622.53;;;47.88;22.71
23318;BME280;11831;55.918;37.746;2022-08-18T14:00:00;99629.69;;;49.18;22.04
23318;BME280;11831;55.918;37.746;2022-08-18T14:02:26;99624.34;;;48.01;21.93
23318;BME280;11831;55.918;37.746;2022-08-18T14:04:52;99626.03;;;48.64;21.84
23318;BME280;11831;55.918;37.746;2022-08-18T14:07:20;99630.56;;;47.72;22.19
23318;BME280;11831;55.918;37.746;2022-08-18T14:09:46;99632.06;;;48.81;21.67
23318;BME280;11831;55.918;37.746;2022-08-18T14:12:16;99625.44;;;47.61;21.96
23318;BME280;11831;55.918;37.746;2022-08-18T14:14:44;99631.44;;;48.53;21.87
23318;BME280;11831;55.918;37.746;2022-08-18T14:17:10;99632.06;;;48.00;22.11
23318;BME280;11831;55.918;37.746;2022-08-18T14:19:36;99641.16;;;48.04;21.96
23318;BME280;11831;55.918;37.746;2022-08-18T14:22:21;99631.91;;;46.61;22.11
23318;BME280;11831;55.918;37.746;2022-08-18T14:25:05;99637.47;;;47.89;22.31
23318;BME280;11831;55.918;37.746;2022-08-18T14:27:50;99639.06;;;48.47;21.62
23318;BME280;11831;55.918;37.746;2022-08-18T14:30:16;99638.16;;;47.66;21.63
23318;BME280;11831;55.918;37.746;2022-08-18T14:32:43;99640.38;;;48.37;21.65
23318;BME280;11831;55.918;37.746;2022-08-18T14:35:11;99642.37;;;47.70;21.64
23318;BME280;11831;55.918;37.746;2022-08-18T14:37:37;99645.38;;;45.98;22.57
23318;BME280;11831;55.918;37.746;2022-08-18T14:40:04;99649.34;;;46.68;22.99
23318;BME280;11831;55.918;37.746;2022-08-18T14:42:32;99650.94;;;46.20;23.36
23318;BME280;11831;55.918;37.746;2022-08-18T14:44:58;99643.22;;;47.43;22.91
23318;BME280;11831;55.918;37.746;2022-08-18T14:47:24;99649.63;;;46.52;23.22
23318;BME280;11831;55.918;37.746;2022-08-18T14:49:54;99653.34;;;46.31;23.67
23318;BME280;11831;55.918;37.746;2022-08-18T14:52:22;99648.41;;;45.82;23.84
23318;BME280;11831;55.918;37.746;2022-08-18T14:54:48;99645.00;;;46.27;24.12
23318;BME280;11831;55.918;37.746;2022-08-18T14:57:15;99651.94;;;45.42;24.32
23318;BME280;11831;55.918;37.746;2022-08-18T14:59:41;99653.00;;;45.89;24.10
23318;BME280;11831;55.918;37.746;2022-08-18T15:02:10;99643.59;;;45.92;24.05
23318;BME280;11831;55.918;37.746;2022-08-18T15:04:37;99637.97;;;44.70;24.91
23318;BME280;11831;55.918;37.746;2022-08-18T15:07:03;99643.22;;;44.58;25.14
23318;BME280;11831;55.918;37.746;2022-08-18T15:09:29;99642.44;;;44.93;24.93
23318;BME280;11831;55.918;37.746;2022-08-18T15:11:56;99635.09;;;44.95;25.11
23318;BME280;11831;55.918;37.746;2022-08-18T15:14:23;99645.75;;;44.18;25.48
23318;BME280;11831;55.918;37.746;2022-08-18T15:16:51;99650.00;;;43.97;25.79
23318;BME280;11831;55.918;37.746;2022-08-18T15:19:17;99647.03;;;44.39;25.81
23318;BME280;11831;55.918;37.746;2022-08-18T15:21:43;99651.44;;;44.02;26.18
23318;BME280;11831;55.918;37.746;2022-08-18T15:24:27;99642.22;;;43.05;26.56
23318;BME280;11831;55.918;37.746;2022-08-18T15:27:11;99645.22;;;42.17;27.40
23318;BME280;11831;55.918;37.746;2022-08-18T15:29:38;99652.19;;;42.29;27.85
23318;BME280;11831;55.918;37.746;2022-08-18T15:32:05;99657.75;;;41.96;28.32
23318;BME280;11831;55.918;37.746;2022-08-18T15:34:31;99653.94;;;42.39;28.17
23318;BME280;11831;55.918;37.746;2022-08-18T15:36:57;99652.75;;;42.56;28.02
23318;BME280;11831;55.918;37.746;2022-08-18T15:39:24;99662.25;;;41.74;28.73
23318;BME280;11831;55.918;37.746;2022-08-18T15:41:50;99657.91;;;41.30;29.18
23318;BME280;11831;55.918;37.746;2022-08-18T15:44:16;99656.97;;;41.76;28.99